Time;durP1;ratioP1;P1;durP2;ratioP2;P2;SDS_P1;SDS_P2;PMS_P1;PMS_P2;Temp;Humidity;BMP_temperature;BMP_pressure;BME280_temperature;BME280_humidity;BME280_pressure;Samples;Min_cycle;Max_cycle;Signal;HPM_P1;HPM_P2
2021/12/26 00:01:11;;;;;;;;;13.40;13.40;;;;;;;;5270280;28;9493;-69
2021/12/26 00:03:43;;;;;;;;;10.00;8.40;;;;;;;;5270688;28;9656;-69
2021/12/26 00:06:16;;;;;;;;;17.40;17.40;;;;;;;;5270303;28;9484;-68
2021/12/26 00:08:48;;;;;;;;;7.80;7.80;;;;;;;;5253325;28;8784;-68
2021/12/26 00:11:20;;;;;;;;;3.00;3.00;;;;;;;;5253668;28;8784;-68
2021/12/26 00:14:09;;;;;;;;;15.20;15.20;;;;;;;;5272987;28;8777;-68
2021/12/26 00:16:42;;;;;;;;;18.60;18.40;;;;;;;;5237283;28;9557;-69
2021/12/26 00:19:13;;;;;;;;;19.80;19.80;;;;;;;;5270516;28;8784;-68
2021/12/26 00:21:44;;;;;;;;;9.00;9.00;;;;;;;;5253731;28;8773;-69
2021/12/26 00:24:15;;;;;;;;;18.80;18.80;;;;;;;;5252928;28;8811;-68
2021/12/26 00:26:46;;;;;;;;;10.40;10.40;;;;;;;;5254749;28;8804;-68
2021/12/26 00:29:17;;;;;;;;;14.50;14.50;;;;;;;;5257581;28;8770;-70
2021/12/26 00:31:48;;;;;;;;;7.00;7.00;;;;;;;;5257162;28;10561;-70
2021/12/26 00:34:19;;;;;;;;;13.00;13.00;;;;;;;;5274242;28;10460;-69
2021/12/26 00:36:50;;;;;;;;;14.50;14.50;;;;;;;;5240881;28;9336;-69
2021/12/26 00:39:21;;;;;;;;;10.80;10.80;;;;;;;;5257097;28;8827;-69
2021/12/26 00:41:53;;;;;;;;;18.00;18.00;;;;;;;;5240720;28;8796;-70
2021/12/26 00:44:25;;;;;;;;;12.20;12.20;;;;;;;;5257640;28;8800;-69
2021/12/26 00:46:56;;;;;;;;;16.40;16.00;;;;;;;;5221234;28;8810;-67
2021/12/26 00:49:27;;;;;;;;;20.50;20.50;;;;;;;;5253522;28;8771;-69
2021/12/26 00:51:57;;;;;;;;;16.00;16.00;;;;;;;;5220124;28;8789;-69
2021/12/26 00:54:29;;;;;;;;;14.20;14.20;;;;;;;;5236882;28;8797;-67
2021/12/26 00:57:19;;;;;;;;;6.00;6.00;;;;;;;;5239531;28;9525;-69
2021/12/26 01:00:10;;;;;;;;;3.00;3.00;;;;;;;;5255665;28;8766;-69
2021/12/26 01:02:43;;;;;;;;;5.20;5.20;;;;;;;;5219869;28;8794;-69
2021/12/26 01:05:16;;;;;;;;;6.00;6.00;;;;;;;;5219470;28;8805;-69
2021/12/26 01:10:21;;;;;;;;;9.80;9.80;;;;;;;;5236313;28;8809;-69
2021/12/26 01:12:54;;;;;;;;;5.20;5.20;;;;;;;;5219436;28;8985;-69
2021/12/26 01:15:26;;;;;;;;;9.60;9.60;;;;;;;;5219544;28;9493;-69
2021/12/26 01:17:58;;;;;;;;;12.40;12.40;;;;;;;;5219110;28;8797;-67
2021/12/26 01:20:54;;;;;;;;;11.40;11.40;;;;;;;;5238093;28;8762;-69
2021/12/26 01:23:27;;;;;;;;;12.80;12.80;;;;;;;;5219937;28;8837;-69
2021/12/26 01:26:17;;;;;;;;;6.00;6.00;;;;;;;;5238789;28;8805;-69
2021/12/26 01:29:06;;;;;;;;;7.00;7.00;;;;;;;;5255326;28;8783;-69
2021/12/26 01:31:41;;;;;;;;;6.00;4.00;;;;;;;;5236072;28;8779;-67
2021/12/26 01:34:31;;;;;;;;;4.80;4.80;;;;;;;;5252600;28;8782;-67
2021/12/26 01:37:20;;;;;;;;;6.00;6.00;;;;;;;;5238450;28;8797;-69
2021/12/26 01:40:07;;;;;;;;;16.80;16.80;;;;;;;;5238347;28;8771;-68
2021/12/26 01:43:01;;;;;;;;;9.20;9.00;;;;;;;;5235256;28;8783;-70
2021/12/26 01:45:58;;;;;;;;;10.40;10.40;;;;;;;;5242194;28;8816;-69
2021/12/26 01:48:29;;;;;;;;;29.00;27.00;;;;;;;;5255935;28;8797;-69
2021/12/26 01:51:01;;;;;;;;;15.40;15.00;;;;;;;;5255973;28;8766;-69
2021/12/26 01:53:38;;;;;;;;;10.00;10.00;;;;;;;;5256055;28;8804;-69
2021/12/26 01:56:12;;;;;;;;;5.60;5.60;;;;;;;;5256364;28;8839;-69
2021/12/26 01:58:43;;;;;;;;;6.60;6.60;;;;;;;;5239544;28;8804;-69
2021/12/26 02:01:30;;;;;;;;;30.60;30.20;;;;;;;;5241714;28;8777;-70
2021/12/26 02:04:02;;;;;;;;;56.00;48.00;;;;;;;;5255359;28;8762;-68
2021/12/26 02:06:33;;;;;;;;;30.20;27.60;;;;;;;;5290863;28;8786;-70
2021/12/26 02:09:04;;;;;;;;;26.80;25.80;;;;;;;;5239283;28;9469;-69
2021/12/26 02:11:36;;;;;;;;;16.60;15.60;;;;;;;;5272123;28;8773;-70
2021/12/26 02:14:10;;;;;;;;;4.40;4.40;;;;;;;;5255159;28;8762;-71
2021/12/26 02:17:17;;;;;;;;;8.40;8.40;;;;;;;;5256063;28;8801;-69
2021/12/26 02:19:51;;;;;;;;;7.80;7.80;;;;;;;;5256760;28;9547;-70
2021/12/26 02:22:30;;;;;;;;;6.80;6.80;;;;;;;;5255399;28;8758;-69
2021/12/26 02:25:23;;;;;;;;;4.40;4.40;;;;;;;;5255563;28;8763;-69
2021/12/26 02:27:54;;;;;;;;;5.60;5.60;;;;;;;;5255924;28;8820;-69
2021/12/26 02:30:45;;;;;;;;;4.00;4.00;;;;;;;;5272345;28;8843;-70
2021/12/26 02:33:36;;;;;;;;;37.80;32.00;;;;;;;;5272001;28;8905;-70
2021/12/26 02:36:08;;;;;;;;;11.60;10.40;;;;;;;;5255565;28;8769;-69
2021/12/26 02:38:59;;;;;;;;;9.80;9.60;;;;;;;;5271885;28;8766;-68
2021/12/26 02:41:31;;;;;;;;;16.00;16.00;;;;;;;;5272097;28;8796;-70
2021/12/26 02:44:03;;;;;;;;;10.40;10.40;;;;;;;;5238863;28;9527;-70
2021/12/26 02:46:40;;;;;;;;;15.20;13.80;;;;;;;;5238840;28;8802;-73
2021/12/26 02:49:12;;;;;;;;;11.40;11.20;;;;;;;;5254929;28;8785;-71
2021/12/26 02:52:01;;;;;;;;;12.60;12.60;;;;;;;;5257182;28;8888;-71
2021/12/26 02:54:33;;;;;;;;;15.20;12.40;;;;;;;;5254665;28;8793;-72
2021/12/26 02:57:04;;;;;;;;;10.00;8.40;;;;;;;;5254691;28;8842;-69
2021/12/26 02:59:35;;;;;;;;;10.40;10.40;;;;;;;;5271944;28;8769;-69
2021/12/26 03:02:25;;;;;;;;;13.40;13.40;;;;;;;;5257095;28;8766;-68
2021/12/26 03:04:55;;;;;;;;;18.20;18.00;;;;;;;;5254449;28;8777;-69
2021/12/26 03:07:27;;;;;;;;;18.60;18.60;;;;;;;;5238120;28;8828;-68
2021/12/26 03:10:00;;;;;;;;;18.20;18.20;;;;;;;;5254136;28;8774;-69
2021/12/26 03:12:33;;;;;;;;;19.40;18.40;;;;;;;;5238185;28;9500;-69
2021/12/26 03:15:04;;;;;;;;;24.40;23.80;;;;;;;;5254019;28;9545;-69
2021/12/26 03:17:36;;;;;;;;;15.80;15.80;;;;;;;;5237976;28;8848;-69
2021/12/26 03:20:09;;;;;;;;;27.80;24.80;;;;;;;;5254567;28;9588;-69
2021/12/26 03:22:40;;;;;;;;;14.20;13.00;;;;;;;;5270882;28;9486;-69
2021/12/26 03:25:13;;;;;;;;;16.20;15.80;;;;;;;;5253782;28;8754;-70
2021/12/26 03:27:45;;;;;;;;;21.60;21.00;;;;;;;;5254178;28;8797;-70
2021/12/26 03:30:36;;;;;;;;;23.20;20.60;;;;;;;;5256495;28;8778;-69
2021/12/26 03:33:09;;;;;;;;;15.80;15.80;;;;;;;;5253967;28;8929;-69
2021/12/26 03:35:41;;;;;;;;;21.40;21.40;;;;;;;;5271209;28;8777;-69
2021/12/26 03:38:13;;;;;;;;;29.80;26.80;;;;;;;;5237596;28;8793;-69
2021/12/26 03:40:55;;;;;;;;;23.80;23.20;;;;;;;;5255452;28;8851;-69
2021/12/26 03:43:28;;;;;;;;;26.40;24.20;;;;;;;;5253375;28;8766;-69
2021/12/26 03:45:59;;;;;;;;;17.20;17.20;;;;;;;;5270333;28;8794;-69
2021/12/26 03:48:31;;;;;;;;;15.60;13.20;;;;;;;;5253685;28;8913;-69
2021/12/26 03:51:04;;;;;;;;;12.20;12.20;;;;;;;;5253328;28;8774;-69
2021/12/26 03:53:37;;;;;;;;;23.60;21.80;;;;;;;;5237667;28;8777;-69
2021/12/26 03:56:09;;;;;;;;;13.20;11.80;;;;;;;;5236863;28;8847;-69
2021/12/26 03:58:44;;;;;;;;;26.20;24.20;;;;;;;;5271413;28;8774;-70
2021/12/26 04:01:16;;;;;;;;;9.00;9.00;;;;;;;;5252774;28;9500;-70
2021/12/26 04:03:47;;;;;;;;;18.20;16.80;;;;;;;;5271134;28;9485;-72
2021/12/26 04:06:18;;;;;;;;;21.20;20.20;;;;;;;;5236601;28;8778;-70
2021/12/26 04:08:51;;;;;;;;;13.20;12.40;;;;;;;;5253786;28;8858;-69
2021/12/26 04:11:24;;;;;;;;;9.40;9.20;;;;;;;;5253479;28;8766;-69
2021/12/26 04:14:14;;;;;;;;;17.20;17.20;;;;;;;;5256236;28;9466;-69
2021/12/26 04:16:46;;;;;;;;;15.80;15.80;;;;;;;;5253857;28;8762;-70
2021/12/26 04:19:35;;;;;;;;;8.20;6.80;;;;;;;;5270579;28;8827;-70
2021/12/26 04:22:08;;;;;;;;;16.80;16.40;;;;;;;;5271076;28;8774;-71
2021/12/26 04:24:39;;;;;;;;;15.00;15.00;;;;;;;;5271771;28;8758;-70
2021/12/26 04:27:10;;;;;;;;;17.00;15.40;;;;;;;;5237078;28;8790;-70
2021/12/26 04:30:01;;;;;;;;;15.00;13.80;;;;;;;;5289647;28;8758;-72
2021/12/26 04:32:34;;;;;;;;;13.40;13.00;;;;;;;;5238089;28;8805;-71
2021/12/26 04:35:05;;;;;;;;;9.20;9.20;;;;;;;;5254944;28;8781;-70
2021/12/26 04:37:37;;;;;;;;;13.40;13.40;;;;;;;;5237791;28;8773;-69
2021/12/26 04:40:12;;;;;;;;;7.00;7.00;;;;;;;;5271658;28;8785;-69
2021/12/26 04:43:04;;;;;;;;;19.00;18.20;;;;;;;;5287694;28;8810;-70
2021/12/26 04:45:43;;;;;;;;;37.40;32.00;;;;;;;;5255038;28;8862;-70
2021/12/26 04:48:47;;;;;;;;;24.00;24.00;;;;;;;;5242067;28;9467;-70
2021/12/26 04:51:18;;;;;;;;;15.80;14.80;;;;;;;;5236804;28;8808;-69
2021/12/26 04:53:56;;;;;;;;;14.60;13.80;;;;;;;;5270553;28;9450;-68
2021/12/26 04:56:31;;;;;;;;;8.80;8.40;;;;;;;;5237158;28;8774;-68
2021/12/26 04:59:03;;;;;;;;;36.40;32.80;;;;;;;;5288353;28;8778;-68
2021/12/26 05:01:34;;;;;;;;;18.60;18.40;;;;;;;;5254614;28;8784;-68
2021/12/26 05:04:06;;;;;;;;;12.40;12.40;;;;;;;;5239547;28;8762;-69
2021/12/26 05:11:01;;;;;;;;;8.40;8.40;;;;;;;;5293859;28;8690;-67
2021/12/26 05:13:32;;;;;;;;;16.00;16.00;;;;;;;;5245613;28;8774;-67
2021/12/26 05:16:04;;;;;;;;;19.60;18.60;;;;;;;;5298658;28;8782;-69
2021/12/26 05:18:37;;;;;;;;;20.00;20.00;;;;;;;;5263849;28;8793;-67
2021/12/26 05:21:10;;;;;;;;;24.60;24.40;;;;;;;;5247365;28;8781;-66
2021/12/26 05:23:41;;;;;;;;;24.40;24.40;;;;;;;;5248041;28;8778;-67
2021/12/26 05:26:13;;;;;;;;;34.40;29.40;;;;;;;;5263448;28;8808;-67
2021/12/26 05:28:44;;;;;;;;;21.20;19.80;;;;;;;;5279307;28;9535;-62
2021/12/26 05:31:17;;;;;;;;;28.20;26.60;;;;;;;;5242237;28;9446;-65
2021/12/26 05:33:48;;;;;;;;;46.33;44.33;;;;;;;;5276812;28;8823;-64
2021/12/26 05:36:37;;;;;;;;;58.00;47.75;;;;;;;;5276400;28;12016;-64
2021/12/26 05:39:08;;;;;;;;;58.67;48.33;;;;;;;;5276038;28;8757;-63
2021/12/26 05:41:41;;;;;;;;;49.00;45.25;;;;;;;;5259008;28;12049;-62
2021/12/26 05:44:32;;;;;;;;;43.00;40.50;;;;;;;;5277554;28;8900;-62
2021/12/26 05:47:06;;;;;;;;;44.00;33.50;;;;;;;;5258043;28;9525;-62
2021/12/26 05:49:54;;;;;;;;;30.50;26.25;;;;;;;;5260776;28;9480;-64
2021/12/26 05:52:26;;;;;;;;;34.00;32.60;;;;;;;;5275019;28;8773;-63
2021/12/26 05:55:00;;;;;;;;;49.50;46.75;;;;;;;;5258710;28;8781;-63
2021/12/26 05:57:32;;;;;;;;;34.40;28.40;;;;;;;;5274485;28;9607;-63
2021/12/26 06:00:08;;;;;;;;;25.60;24.60;;;;;;;;5257576;28;9512;-63
2021/12/26 06:02:50;;;;;;;;;31.75;30.00;;;;;;;;5274388;28;8750;-63
2021/12/26 06:05:22;;;;;;;;;24.80;23.00;;;;;;;;5274212;28;8762;-64
2021/12/26 06:07:53;;;;;;;;;24.80;24.80;;;;;;;;5256844;28;8949;-64
2021/12/26 06:10:24;;;;;;;;;24.75;24.75;;;;;;;;5272702;28;8900;-63
2021/12/26 06:13:13;;;;;;;;;29.80;27.60;;;;;;;;5272458;28;8798;-64
2021/12/26 06:15:44;;;;;;;;;28.20;27.60;;;;;;;;5255798;28;8797;-64
2021/12/26 06:18:15;;;;;;;;;28.25;28.00;;;;;;;;5239143;28;8782;-64
2021/12/26 06:21:15;;;;;;;;;25.20;24.20;;;;;;;;5276611;28;8774;-64
2021/12/26 06:23:52;;;;;;;;;23.60;23.20;;;;;;;;5272236;28;8758;-64
2021/12/26 06:26:42;;;;;;;;;28.60;26.20;;;;;;;;5275758;28;9418;-65
2021/12/26 06:29:24;;;;;;;;;22.80;22.80;;;;;;;;5240883;28;8765;-64
2021/12/26 06:32:15;;;;;;;;;25.20;24.60;;;;;;;;5237313;28;8766;-64
2021/12/26 06:35:05;;;;;;;;;27.00;27.00;;;;;;;;5290337;28;8746;-64
2021/12/26 06:37:55;;;;;;;;;23.60;23.60;;;;;;;;5258566;28;9433;-64
2021/12/26 06:40:54;;;;;;;;;28.60;27.60;;;;;;;;5217339;28;8892;-65
2021/12/26 06:43:51;;;;;;;;;30.40;30.40;;;;;;;;5244845;28;9410;-64
2021/12/26 06:46:42;;;;;;;;;23.20;21.40;;;;;;;;5271165;28;8790;-64
2021/12/26 06:49:30;;;;;;;;;24.20;20.20;;;;;;;;5254873;28;8758;-64
2021/12/26 06:52:01;;;;;;;;;24.80;24.80;;;;;;;;5237963;28;8758;-64
2021/12/26 06:54:33;;;;;;;;;36.75;34.50;;;;;;;;5254687;28;8777;-64
2021/12/26 06:57:04;;;;;;;;;29.00;27.60;;;;;;;;5271688;28;11429;-64
2021/12/26 06:59:35;;;;;;;;;23.20;22.20;;;;;;;;5254471;28;8780;-64
2021/12/26 07:02:06;;;;;;;;;21.20;21.20;;;;;;;;5238152;28;8742;-64
2021/12/26 07:04:51;;;;;;;;;16.60;16.60;;;;;;;;5290518;28;8892;-64
2021/12/26 07:07:27;;;;;;;;;23.60;23.40;;;;;;;;5255446;28;8774;-64
2021/12/26 07:10:00;;;;;;;;;46.25;40.00;;;;;;;;5271570;28;8832;-64
2021/12/26 07:12:30;;;;;;;;;33.40;33.00;;;;;;;;5254350;28;8750;-64
2021/12/26 07:15:23;;;;;;;;;40.50;36.75;;;;;;;;5254324;28;8774;-65
2021/12/26 07:18:00;;;;;;;;;37.50;37.50;;;;;;;;5255512;28;8847;-64
2021/12/26 07:20:34;;;;;;;;;40.00;39.50;;;;;;;;5255001;28;8782;-63
2021/12/26 07:23:25;;;;;;;;;41.75;36.75;;;;;;;;5278057;28;8870;-64
2021/12/26 07:26:05;;;;;;;;;36.80;36.00;;;;;;;;5271186;28;8774;-64
2021/12/26 07:28:36;;;;;;;;;35.50;35.50;;;;;;;;5254011;28;8793;-66
2021/12/26 07:31:25;;;;;;;;;30.20;30.20;;;;;;;;5289875;28;11098;-66
2021/12/26 07:34:04;;;;;;;;;17.40;16.00;;;;;;;;5271606;28;8839;-66
2021/12/26 07:36:35;;;;;;;;;19.80;18.40;;;;;;;;5270570;28;8792;-66
2021/12/26 07:39:16;;;;;;;;;16.00;15.60;;;;;;;;5255543;28;8774;-66
2021/12/26 07:41:47;;;;;;;;;45.20;41.80;;;;;;;;5270630;28;8780;-65
2021/12/26 07:44:38;;;;;;;;;54.75;47.50;;;;;;;;5263285;28;8801;-66
2021/12/26 07:47:29;;;;;;;;;51.00;44.75;;;;;;;;5289219;28;8939;-66
2021/12/26 07:50:04;;;;;;;;;6.20;3.40;;;;;;;;5254367;28;8782;-66
2021/12/26 07:52:54;;;;;;;;;24.20;24.20;;;;;;;;5288912;28;8785;-65
2021/12/26 07:55:43;;;;;;;;;18.60;17.80;;;;;;;;5270509;28;8758;-66
2021/12/26 07:58:34;;;;;;;;;29.40;27.60;;;;;;;;5270480;28;8803;-66
2021/12/26 08:01:31;;;;;;;;;15.40;15.40;;;;;;;;5289168;28;8860;-66
2021/12/26 08:04:25;;;;;;;;;13.20;10.80;;;;;;;;5268099;28;9464;-66
2021/12/26 08:07:27;;;;;;;;;17.80;17.80;;;;;;;;5288547;28;8794;-66
2021/12/26 08:09:58;;;;;;;;;13.50;13.00;;;;;;;;5253223;28;8785;-66
2021/12/26 08:12:29;;;;;;;;;22.40;21.20;;;;;;;;5253724;28;8789;-66
2021/12/26 08:15:02;;;;;;;;;30.00;30.00;;;;;;;;5253186;28;8777;-66
2021/12/26 08:17:33;;;;;;;;;27.40;27.40;;;;;;;;5253251;28;8765;-66
2021/12/26 08:20:05;;;;;;;;;33.60;33.40;;;;;;;;5253043;28;9472;-66
2021/12/26 08:22:36;;;;;;;;;21.00;17.80;;;;;;;;5253378;28;8800;-66
2021/12/26 08:25:07;;;;;;;;;19.00;17.20;;;;;;;;5288035;28;8770;-66
2021/12/26 08:27:38;;;;;;;;;13.40;13.40;;;;;;;;5269833;28;8801;-66
2021/12/26 08:30:10;;;;;;;;;16.50;16.50;;;;;;;;5253200;28;8781;-66
2021/12/26 08:32:42;;;;;;;;;18.40;16.80;;;;;;;;5287863;28;12074;-65
2021/12/26 08:35:13;;;;;;;;;15.60;14.40;;;;;;;;5270272;28;8766;-65
2021/12/26 08:37:46;;;;;;;;;15.50;15.50;;;;;;;;5269794;28;9481;-65
2021/12/26 08:40:17;;;;;;;;;18.80;15.80;;;;;;;;5269958;28;8778;-65
2021/12/26 08:42:48;;;;;;;;;33.50;33.50;;;;;;;;5236465;28;8781;-65
2021/12/26 08:45:19;;;;;;;;;26.00;24.75;;;;;;;;5253040;28;8833;-65
2021/12/26 08:47:50;;;;;;;;;24.75;21.75;;;;;;;;5254192;28;12133;-67
2021/12/26 08:50:22;;;;;;;;;15.75;15.00;;;;;;;;5240575;28;10659;-65
2021/12/26 08:52:53;;;;;;;;;21.80;19.00;;;;;;;;5257309;28;8750;-65
2021/12/26 08:55:25;;;;;;;;;16.20;16.20;;;;;;;;5274669;28;8782;-65
2021/12/26 08:57:56;;;;;;;;;26.00;26.00;;;;;;;;5256954;28;8923;-66
2021/12/26 09:00:27;;;;;;;;;18.25;18.25;;;;;;;;5273978;28;8894;-67
2021/12/26 09:02:58;;;;;;;;;20.75;19.25;;;;;;;;5274113;28;11335;-66
2021/12/26 09:05:47;;;;;;;;;24.80;24.60;;;;;;;;5291941;28;10598;-66
2021/12/26 09:08:18;;;;;;;;;22.50;17.50;;;;;;;;5291558;28;8866;-66
2021/12/26 09:10:49;;;;;;;;;12.00;8.50;;;;;;;;5273638;28;11391;-67
2021/12/26 09:13:20;;;;;;;;;21.40;21.40;;;;;;;;5274617;28;8851;-66
2021/12/26 09:15:51;;;;;;;;;26.75;26.00;;;;;;;;5273356;28;8758;-67
2021/12/26 09:18:22;;;;;;;;;24.25;22.00;;;;;;;;5239946;28;8872;-66
2021/12/26 09:20:52;;;;;;;;;25.50;25.50;;;;;;;;5273702;28;8777;-66
2021/12/26 09:23:23;;;;;;;;;17.75;17.75;;;;;;;;5273878;28;8794;-66
2021/12/26 09:25:54;;;;;;;;;20.75;20.75;;;;;;;;5273852;28;8805;-69
2021/12/26 09:28:25;;;;;;;;;25.50;23.50;;;;;;;;5240119;28;8785;-66
2021/12/26 09:31:15;;;;;;;;;26.80;26.40;;;;;;;;5259498;28;11203;-67
2021/12/26 09:33:46;;;;;;;;;12.00;11.60;;;;;;;;5273458;28;8770;-66
2021/12/26 09:36:17;;;;;;;;;20.75;19.25;;;;;;;;5256600;28;8786;-66
2021/12/26 09:38:48;;;;;;;;;28.75;24.00;;;;;;;;5291878;28;8810;-73
2021/12/26 09:41:18;;;;;;;;;20.50;20.00;;;;;;;;5256534;28;12025;-74
2021/12/26 09:43:50;;;;;;;;;12.75;12.75;;;;;;;;5256666;28;8778;-73
2021/12/26 09:46:20;;;;;;;;;14.80;14.80;;;;;;;;5255850;28;11478;-74
2021/12/26 09:48:51;;;;;;;;;12.20;12.20;;;;;;;;5273503;28;8914;-74
2021/12/26 09:51:22;;;;;;;;;15.00;13.00;;;;;;;;5256251;28;8864;-73
2021/12/26 09:54:11;;;;;;;;;9.60;9.40;;;;;;;;5291258;28;8742;-73
2021/12/26 09:56:42;;;;;;;;;21.25;20.00;;;;;;;;5273568;28;8789;-73
2021/12/26 09:59:18;;;;;;;;;21.75;20.50;;;;;;;;5254551;28;8940;-74
2021/12/26 10:01:50;;;;;;;;;43.20;38.60;;;;;;;;5272964;28;9522;-67
2021/12/26 10:04:31;;;;;;;;;13.80;13.80;;;;;;;;5273270;28;8784;-76
2021/12/26 10:07:09;;;;;;;;;6.80;5.60;;;;;;;;5273712;28;8804;-77
2021/12/26 10:09:42;;;;;;;;;22.00;21.00;;;;;;;;5273808;28;8859;-77
2021/12/26 10:12:14;;;;;;;;;17.60;17.60;;;;;;;;5256030;28;8766;-73
2021/12/26 10:14:47;;;;;;;;;12.80;12.80;;;;;;;;5272821;28;8790;-70
2021/12/26 10:17:23;;;;;;;;;9.00;9.00;;;;;;;;5255357;28;8781;-66
2021/12/26 10:20:05;;;;;;;;;12.40;12.00;;;;;;;;5255788;28;8801;-73
2021/12/26 10:22:37;;;;;;;;;8.80;8.80;;;;;;;;5255718;28;8762;-77
2021/12/26 10:25:10;;;;;;;;;4.00;4.00;;;;;;;;5273574;28;8766;-79
2021/12/26 10:27:42;;;;;;;;;14.40;14.40;;;;;;;;5272546;28;8801;-75
2021/12/26 10:30:17;;;;;;;;;33.00;32.60;;;;;;;;5290479;28;9493;-81
2021/12/26 10:32:48;;;;;;;;;18.00;17.20;;;;;;;;5255569;28;8782;-73
2021/12/26 10:35:19;;;;;;;;;31.40;26.80;;;;;;;;5272510;28;8819;-78
2021/12/26 10:37:52;;;;;;;;;30.20;25.60;;;;;;;;5255108;28;8881;-78
2021/12/26 10:40:25;;;;;;;;;17.60;17.20;;;;;;;;5271981;28;8770;-79
2021/12/26 10:42:58;;;;;;;;;21.60;21.40;;;;;;;;5272334;28;9540;-79
2021/12/26 10:45:33;;;;;;;;;20.40;18.00;;;;;;;;5255014;28;8816;-73
2021/12/26 10:48:06;;;;;;;;;18.20;18.20;;;;;;;;5254631;28;8806;-80
2021/12/26 10:50:38;;;;;;;;;22.80;22.80;;;;;;;;5238145;28;8914;-82
2021/12/26 10:53:12;;;;;;;;;20.20;17.40;;;;;;;;5272083;28;8786;-76
2021/12/26 10:55:52;;;;;;;;;15.00;15.00;;;;;;;;5254767;28;8773;-84
2021/12/26 10:58:25;;;;;;;;;19.80;18.60;;;;;;;;5254720;28;8746;-79
2021/12/26 11:00:57;;;;;;;;;21.00;21.00;;;;;;;;5255107;28;8774;-79
2021/12/26 11:03:31;;;;;;;;;21.80;21.80;;;;;;;;5238278;28;8892;-78
2021/12/26 11:06:03;;;;;;;;;23.20;19.00;;;;;;;;5271479;28;8842;-79
2021/12/26 11:08:36;;;;;;;;;26.20;25.80;;;;;;;;5271674;28;8813;-78
2021/12/26 11:11:11;;;;;;;;;20.00;18.60;;;;;;;;5239767;28;8758;-79
2021/12/26 11:13:42;;;;;;;;;15.60;15.20;;;;;;;;5255650;28;8774;-78
2021/12/26 11:16:15;;;;;;;;;11.60;11.60;;;;;;;;5271218;28;8854;-84
2021/12/26 11:18:53;;;;;;;;;0.00;0.00;;;;;;;;5254901;28;8785;-80
2021/12/26 11:21:23;;;;;;;;;11.00;11.00;;;;;;;;5254872;28;8766;-83
2021/12/26 11:23:54;;;;;;;;;5.50;5.50;;;;;;;;5238085;28;8774;-78
2021/12/26 11:26:25;;;;;;;;;9.00;9.00;;;;;;;;5274596;28;8762;-83
2021/12/26 11:28:57;;;;;;;;;3.20;3.20;;;;;;;;5257822;28;8931;-79
2021/12/26 11:35:53;;;;;;;;;12.20;12.20;;;;;;;;5289340;28;8694;-80
2021/12/26 11:38:24;;;;;;;;;12.00;11.20;;;;;;;;5271156;28;8790;-83
2021/12/26 11:41:31;;;;;;;;;17.40;17.40;;;;;;;;5257443;28;9556;-82
2021/12/26 11:44:39;;;;;;;;;16.40;15.60;;;;;;;;5289760;28;8797;-81
2021/12/26 11:47:37;;;;;;;;;13.80;12.40;;;;;;;;5249674;28;8814;-78
2021/12/26 11:50:34;;;;;;;;;13.80;13.80;;;;;;;;5249488;28;8822;-78
2021/12/26 11:53:24;;;;;;;;;25.40;25.40;;;;;;;;5249768;28;8779;-82
2021/12/26 11:56:39;;;;;;;;;25.20;22.80;;;;;;;;5268885;28;8762;-77
2021/12/26 11:59:20;;;;;;;;;38.25;37.75;;;;;;;;5234265;28;9528;-79
2021/12/26 12:01:52;;;;;;;;;36.00;33.00;;;;;;;;5250148;28;8779;-78
2021/12/26 12:04:24;;;;;;;;;23.80;22.60;;;;;;;;5232803;28;8782;-78
2021/12/26 12:06:56;;;;;;;;;24.00;22.00;;;;;;;;5249414;28;8920;-77
2021/12/26 12:09:34;;;;;;;;;22.50;22.50;;;;;;;;5249893;28;8767;-79
2021/12/26 12:12:10;;;;;;;;;30.00;28.75;;;;;;;;5249899;28;8803;-77
2021/12/26 12:14:52;;;;;;;;;50.75;45.75;;;;;;;;5232737;28;8787;-79
2021/12/26 12:17:32;;;;;;;;;76.50;60.00;;;;;;;;5267293;28;8783;-78
2021/12/26 12:20:15;;;;;;;;;88.00;66.00;;;;;;;;5232704;28;8759;-86
2021/12/26 12:23:04;;;;;;;;;72.50;58.50;;;;;;;;5248745;28;9195;-85
2021/12/26 12:25:49;;;;;;;;;35.67;33.67;;;;;;;;5216082;28;9560;-90
2021/12/26 12:28:28;;;;;;;;;27.25;24.75;;;;;;;;5233121;28;8812;-86
2021/12/26 12:31:10;;;;;;;;;30.75;30.25;;;;;;;;5250483;28;8771;-91
2021/12/26 12:33:42;;;;;;;;;21.75;19.75;;;;;;;;5234746;28;8897;-86
2021/12/26 12:36:24;;;;;;;;;29.25;27.25;;;;;;;;5233496;28;8889;-79
2021/12/26 12:39:08;;;;;;;;;30.25;27.75;;;;;;;;5267181;28;8798;-80
2021/12/26 12:41:58;;;;;;;;;28.40;24.20;;;;;;;;5234966;28;8851;-80
2021/12/26 12:44:31;;;;;;;;;31.00;28.00;;;;;;;;5266377;28;8798;-80
2021/12/26 12:47:14;;;;;;;;;26.50;24.00;;;;;;;;5267412;28;8806;-80
2021/12/26 12:49:49;;;;;;;;;29.50;29.00;;;;;;;;5250211;28;9672;-79
2021/12/26 12:52:39;;;;;;;;;21.25;19.75;;;;;;;;5249216;28;8849;-79
2021/12/26 12:55:12;;;;;;;;;19.50;19.50;;;;;;;;5249391;28;8790;-78
2021/12/26 12:57:53;;;;;;;;;21.50;20.50;;;;;;;;5231752;28;8785;-78
2021/12/26 13:00:24;;;;;;;;;22.75;21.00;;;;;;;;5249185;28;8801;-78
2021/12/26 13:02:59;;;;;;;;;14.33;14.33;;;;;;;;5232345;28;8950;-78
2021/12/26 13:05:32;;;;;;;;;19.00;19.00;;;;;;;;5248856;28;8897;-74
2021/12/26 13:08:04;;;;;;;;;15.00;15.00;;;;;;;;5232279;28;8817;-80
2021/12/26 13:10:35;;;;;;;;;15.00;15.00;;;;;;;;5232394;28;8932;-82
2021/12/26 13:13:08;;;;;;;;;54.00;46.50;;;;;;;;5234059;28;8798;-79
2021/12/26 13:15:50;;;;;;;;;18.50;18.50;;;;;;;;5250117;28;8794;-80
2021/12/26 13:18:23;;;;;;;;;11.60;10.40;;;;;;;;5239217;28;8796;-84
2021/12/26 13:21:12;;;;;;;;;11.60;11.60;;;;;;;;5269181;28;8791;-81
2021/12/26 13:23:46;;;;;;;;;8.00;8.00;;;;;;;;5250820;28;8774;-90
2021/12/26 13:26:16;;;;;;;;;23.75;20.00;;;;;;;;5251419;28;8802;-80
2021/12/26 13:28:48;;;;;;;;;23.33;22.67;;;;;;;;5235241;28;8806;-80
2021/12/26 13:31:24;;;;;;;;;18.75;18.50;;;;;;;;5249550;28;8773;-80
2021/12/26 13:33:55;;;;;;;;;13.75;13.00;;;;;;;;5253341;28;8803;-86
2021/12/26 13:36:29;;;;;;;;;14.00;14.00;;;;;;;;5237960;28;9483;-81
2021/12/26 13:38:59;;;;;;;;;18.25;18.25;;;;;;;;5236789;28;8831;-80
2021/12/26 13:41:31;;;;;;;;;31.67;30.33;;;;;;;;5252683;28;8782;-83
2021/12/26 13:44:02;;;;;;;;;19.25;18.00;;;;;;;;5255679;28;8817;-83
2021/12/26 13:46:35;;;;;;;;;10.00;10.00;;;;;;;;5293795;28;8796;-83
2021/12/26 13:49:25;;;;;;;;;4.40;4.40;;;;;;;;5271121;28;9597;-84
2021/12/26 13:51:56;;;;;;;;;7.75;7.75;;;;;;;;5265146;28;8780;-84
2021/12/26 13:54:50;;;;;;;;;14.20;11.60;;;;;;;;5284270;28;8780;-82
2021/12/26 13:57:24;;;;;;;;;10.40;9.60;;;;;;;;5261977;28;8772;-78
2021/12/26 13:59:55;;;;;;;;;14.60;13.80;;;;;;;;5272666;28;8942;-78
2021/12/26 14:02:27;;;;;;;;;11.00;10.50;;;;;;;;5274603;28;8911;-79
2021/12/26 14:05:18;;;;;;;;;19.75;19.25;;;;;;;;5279022;28;8776;-80
2021/12/26 14:07:53;;;;;;;;;22.25;21.25;;;;;;;;5273233;28;8907;-79
2021/12/26 14:10:25;;;;;;;;;16.00;13.75;;;;;;;;5257827;28;8772;-78
2021/12/26 14:12:58;;;;;;;;;11.75;10.25;;;;;;;;5275114;28;8827;-79
2021/12/26 14:15:33;;;;;;;;;15.50;14.00;;;;;;;;5265276;28;8761;-78
2021/12/26 14:18:09;;;;;;;;;16.75;16.75;;;;;;;;5267516;28;8764;-80
2021/12/26 14:20:48;;;;;;;;;10.50;10.50;;;;;;;;5252290;28;8801;-80
2021/12/26 14:23:21;;;;;;;;;9.50;9.25;;;;;;;;5262977;28;8888;-80
2021/12/26 14:25:54;;;;;;;;;16.50;16.50;;;;;;;;5297417;28;8777;-78
2021/12/26 14:28:26;;;;;;;;;27.00;27.00;;;;;;;;5259941;28;8832;-81
2021/12/26 14:30:58;;;;;;;;;13.50;9.75;;;;;;;;5279025;28;8768;-82
2021/12/26 14:33:43;;;;;;;;;30.50;27.25;;;;;;;;5262127;28;8760;-80
2021/12/26 14:36:15;;;;;;;;;21.00;19.50;;;;;;;;5260455;28;8769;-80
2021/12/26 14:39:00;;;;;;;;;26.75;24.50;;;;;;;;5255033;28;8842;-82
2021/12/26 14:41:49;;;;;;;;;17.00;17.00;;;;;;;;5272357;28;8773;-85
2021/12/26 14:44:22;;;;;;;;;1.67;1.67;;;;;;;;5254938;28;8792;-80
2021/12/26 14:47:07;;;;;;;;;20.00;20.00;;;;;;;;5253871;28;11519;-82
2021/12/26 14:49:41;;;;;;;;;17.00;16.75;;;;;;;;5265266;28;8758;-82
2021/12/26 14:52:13;;;;;;;;;5.00;4.00;;;;;;;;5271871;28;8754;-78
2021/12/26 14:54:48;;;;;;;;;12.50;12.50;;;;;;;;5255077;28;8777;-71
2021/12/26 14:57:25;;;;;;;;;16.25;15.50;;;;;;;;5254962;28;8777;-82
2021/12/26 14:59:58;;;;;;;;;14.00;12.50;;;;;;;;5273561;28;8776;-75
2021/12/26 15:02:37;;;;;;;;;9.00;8.00;;;;;;;;5268022;28;8792;-80
2021/12/26 15:05:16;;;;;;;;;12.50;12.50;;;;;;;;5252674;28;8784;-76
2021/12/26 15:07:48;;;;;;;;;10.25;9.25;;;;;;;;5272162;28;8971;-73
2021/12/26 15:10:29;;;;;;;;;11.00;11.00;;;;;;;;5254457;28;8796;-75
2021/12/26 15:13:00;;;;;;;;;6.50;6.50;;;;;;;;5271372;28;8764;-80
2021/12/26 15:15:40;;;;;;;;;13.50;12.25;;;;;;;;5250566;28;8840;-78
2021/12/26 15:18:22;;;;;;;;;11.50;11.00;;;;;;;;5252259;28;8800;-70
2021/12/26 15:21:01;;;;;;;;;9.00;9.00;;;;;;;;5271663;28;9600;-84
2021/12/26 15:24:02;;;;;;;;;9.50;9.50;;;;;;;;5270040;28;8772;-82
2021/12/26 15:26:35;;;;;;;;;13.00;13.00;;;;;;;;5271953;28;8782;-81
2021/12/26 15:29:06;;;;;;;;;19.00;18.00;;;;;;;;5270778;28;9489;-79
2021/12/26 15:31:38;;;;;;;;;15.00;15.00;;;;;;;;5249571;28;8780;-80
2021/12/26 15:34:13;;;;;;;;;11.50;11.50;;;;;;;;5251567;28;8823;-80
2021/12/26 15:36:45;;;;;;;;;12.00;12.00;;;;;;;;5254082;28;8907;-74
2021/12/26 15:39:35;;;;;;;;;9.50;9.25;;;;;;;;5257494;28;8788;-73
2021/12/26 15:42:06;;;;;;;;;19.67;16.67;;;;;;;;5271377;28;8778;-81